Time;durP1;ratioP1;P1;durP2;ratioP2;P2;SDS_P1;SDS_P2;PMS_P1;PMS_P2;Temp;Humidity;BMP_temperature;BMP_pressure;BME280_temperature;BME280_humidity;BME280_pressure;Samples;Min_cycle;Max_cycle;Signal;HPM_P1;HPM_P2
2021/12/15 00:00:04;;;;;;;;;;;11.00;99.90;;;;;;4970974;28;19917;-79
2021/12/15 00:02:30;;;;;;;;;;;11.00;99.90;;;;;;4971350;28;20001;-78
2021/12/15 00:04:56;;;;;;;;;;;11.10;99.90;;;;;;4969703;28;20005;-79
2021/12/15 00:07:24;;;;;;;;;;;11.00;99.90;;;;;;4970778;28;20340;-79
2021/12/15 00:09:49;;;;;;;;;;;11.00;99.90;;;;;;4970768;28;19910;-79
2021/12/15 00:12:15;;;;;;;;;;;11.10;99.90;;;;;;4970988;28;20383;-79
2021/12/15 00:14:42;;;;;;;;;;;11.10;99.90;;;;;;4971056;28;19918;-79
2021/12/15 00:17:08;;;;;;;;;;;10.90;99.90;;;;;;4969589;28;19918;-80
2021/12/15 00:19:33;;;;;;;;;;;11.00;99.90;;;;;;4970752;28;19986;-79
2021/12/15 00:21:59;;;;;;;;;;;11.00;99.90;;;;;;4969785;28;19917;-78
2021/12/15 00:24:25;;;;;;;;;;;11.00;99.90;;;;;;4969602;28;19921;-80
2021/12/15 00:26:52;;;;;;;;;;;11.10;99.90;;;;;;4971266;28;20327;-79
2021/12/15 00:29:18;;;;;;;;;;;11.00;99.90;;;;;;4970706;28;19910;-79
2021/12/15 00:31:46;;;;;;;;;;;11.10;99.90;;;;;;4970462;28;20017;-80
2021/12/15 00:34:12;;;;;;;;;;;11.10;99.90;;;;;;4971223;28;19910;-79
2021/12/15 00:36:37;;;;;;;;;;;11.10;99.90;;;;;;4970376;28;20352;-79
2021/12/15 00:39:04;;;;;;;;;;;11.20;99.90;;;;;;4971098;28;19906;-79
2021/12/15 00:41:29;;;;;;;;;;;11.20;99.90;;;;;;4974458;28;19910;-80
2021/12/15 00:43:55;;;;;;;;;;;11.20;99.90;;;;;;4974378;28;19917;-80
2021/12/15 00:46:21;;;;;;;;;;;11.20;99.90;;;;;;4974385;28;20272;-81
2021/12/15 00:48:48;;;;;;;;;;;11.20;99.90;;;;;;4972998;28;19925;-80
2021/12/15 00:51:14;;;;;;;;;;;11.20;99.90;;;;;;4974227;28;19917;-80
2021/12/15 00:53:40;;;;;;;;;;;11.20;99.90;;;;;;4974398;28;19910;-79
2021/12/15 00:56:05;;;;;;;;;;;11.10;99.90;;;;;;4972884;28;19989;-79
2021/12/15 00:58:31;;;;;;;;;;;11.10;99.90;;;;;;4973980;28;20062;-79
2021/12/15 01:00:58;;;;;;;;;;;11.10;99.90;;;;;;4973905;28;20267;-79
2021/12/15 01:03:24;;;;;;;;;;;11.10;99.90;;;;;;4973887;28;19941;-79
2021/12/15 01:05:52;;;;;;;;;;;11.10;99.90;;;;;;4972972;28;19973;-79
2021/12/15 01:08:23;;;;;;;;;;;11.20;99.90;;;;;;4973853;28;19981;-81
2021/12/15 01:11:12;;;;;;;;;;;11.10;99.90;;;;;;4973625;28;19910;-79
2021/12/15 01:21:54;;;;;;;;;;;11.20;99.90;;;;;;4973592;28;19917;-79
2021/12/15 01:24:20;;;;;;;;;;;11.10;99.90;;;;;;4972783;28;19910;-79
2021/12/15 01:26:46;;;;;;;;;;;11.10;99.90;;;;;;4974114;28;19906;-79
2021/12/15 01:29:11;;;;;;;;;;;11.10;99.90;;;;;;4973388;28;19921;-79
2021/12/15 01:31:37;;;;;;;;;;;11.10;99.90;;;;;;4973213;28;20335;-79
2021/12/15 01:34:03;;;;;;;;;;;11.10;99.90;;;;;;4973535;28;20332;-79
2021/12/15 01:36:28;;;;;;;;;;;11.10;99.90;;;;;;4973252;28;19910;-79
2021/12/15 01:38:54;;;;;;;;;;;11.20;99.90;;;;;;4972526;28;19917;-79
2021/12/15 01:41:22;;;;;;;;;;;11.10;99.90;;;;;;4973505;28;19914;-79
2021/12/15 01:46:53;;;;;;;;;;;11.20;99.90;;;;;;4973277;28;20024;-78
2021/12/15 01:46:56;;;;;;;;;;;11.20;99.90;;;;;;4973164;28;20331;-79
2021/12/15 01:49:32;;;;;;;;;;;11.20;99.90;;;;;;4973301;28;19914;-77
2021/12/15 01:51:59;;;;;;;;;;;11.20;99.90;;;;;;4972687;28;19937;-77
2021/12/15 01:54:26;;;;;;;;;;;11.20;99.90;;;;;;4972983;28;19910;-79
2021/12/15 01:56:52;;;;;;;;;;;11.20;99.90;;;;;;4973611;28;19921;-78
2021/12/15 01:59:20;;;;;;;;;;;11.30;99.90;;;;;;4973057;28;19910;-78
2021/12/15 02:01:46;;;;;;;;;;;11.30;99.90;;;;;;4972743;28;20360;-79
2021/12/15 02:04:12;;;;;;;;;;;11.30;99.90;;;;;;4973221;28;19914;-80
2021/12/15 02:06:41;;;;;;;;;;;11.30;99.90;;;;;;4971481;28;19917;-80
2021/12/15 02:09:06;;;;;;;;;;;11.20;99.90;;;;;;4972867;28;19914;-80
2021/12/15 02:11:32;;;;;;;;;;;11.30;99.90;;;;;;4973057;28;20232;-80
2021/12/15 02:13:58;;;;;;;;;;;11.20;99.90;;;;;;4972603;28;19930;-80
2021/12/15 02:16:23;;;;;;;;;;;11.20;99.90;;;;;;4972719;28;19910;-79
2021/12/15 02:18:49;;;;;;;;;;;11.30;99.90;;;;;;4972464;28;19910;-78
2021/12/15 02:21:19;;;;;;;;;;;11.20;99.90;;;;;;4971451;28;20267;-78
2021/12/15 02:23:49;;;;;;;;;;;11.20;99.90;;;;;;4972968;28;19910;-78
2021/12/15 02:26:20;;;;;;;;;;;11.30;99.90;;;;;;4971379;28;20380;-78
2021/12/15 02:28:47;;;;;;;;;;;11.20;99.90;;;;;;4971101;28;20410;-78
2021/12/15 02:34:08;;;;;;;;;;;11.30;99.90;;;;;;4972345;28;19914;-79
2021/12/15 02:39:37;;;;;;;;;;;11.30;99.90;;;;;;4931423;29;19922;-79
2021/12/15 02:42:03;;;;;;;;;;;11.30;99.90;;;;;;4931112;29;19917;-79
2021/12/15 02:44:28;;;;;;;;;;;11.20;99.90;;;;;;4950261;28;19949;-79
2021/12/15 02:46:54;;;;;;;;;;;11.20;99.90;;;;;;4972065;28;19969;-79
2021/12/15 02:49:22;;;;;;;;;;;11.20;99.90;;;;;;4970945;28;19914;-78
2021/12/15 02:51:49;;;;;;;;;;;11.20;99.90;;;;;;4971978;28;20434;-79
2021/12/15 02:54:16;;;;;;;;;;;11.20;99.90;;;;;;4971869;28;20313;-78
2021/12/15 02:56:43;;;;;;;;;;;11.10;99.90;;;;;;4972152;28;20031;-78
2021/12/15 02:59:10;;;;;;;;;;;11.20;99.90;;;;;;4971902;28;20398;-78
2021/12/15 03:02:17;;;;;;;;;;;11.20;99.90;;;;;;4970043;28;20017;-79
2021/12/15 03:05:01;;;;;;;;;;;11.20;99.90;;;;;;4971511;28;19922;-78
2021/12/15 03:07:44;;;;;;;;;;;11.20;99.90;;;;;;4970423;28;20008;-78
2021/12/15 03:15:41;;;;;;;;;;;11.30;99.90;;;;;;4971364;28;20354;-79
2021/12/15 03:18:09;;;;;;;;;;;11.20;99.90;;;;;;4970434;28;19914;-79
2021/12/15 03:20:46;;;;;;;;;;;11.30;99.90;;;;;;4970958;28;19973;-79
2021/12/15 03:23:12;;;;;;;;;;;11.30;99.90;;;;;;4971653;28;20005;-80
2021/12/15 03:25:38;;;;;;;;;;;11.30;99.90;;;;;;4971717;28;20009;-79
2021/12/15 03:36:12;;;;;;;;;;;11.20;99.90;;;;;;4971642;28;20293;-77
2021/12/15 03:38:38;;;;;;;;;;;11.20;99.90;;;;;;4971632;28;19937;-79
2021/12/15 03:41:05;;;;;;;;;;;11.20;99.90;;;;;;4971128;28;19918;-80
2021/12/15 03:43:31;;;;;;;;;;;11.20;99.90;;;;;;4970292;28;20004;-80
2021/12/15 03:45:59;;;;;;;;;;;11.30;99.90;;;;;;4971319;28;20045;-78
2021/12/15 03:48:26;;;;;;;;;;;11.30;99.90;;;;;;4971398;28;19917;-79
2021/12/15 03:50:53;;;;;;;;;;;11.20;99.90;;;;;;4972030;28;19917;-80
2021/12/15 03:53:19;;;;;;;;;;;11.30;99.90;;;;;;4970699;28;19914;-79
2021/12/15 03:55:45;;;;;;;;;;;11.20;99.90;;;;;;4971359;28;20138;-79
2021/12/15 03:58:13;;;;;;;;;;;11.30;99.90;;;;;;4971261;28;19910;-79
2021/12/15 04:00:47;;;;;;;;;;;11.30;99.90;;;;;;4971249;28;20234;-79
2021/12/15 04:03:20;;;;;;;;;;;11.30;99.90;;;;;;4971055;28;19965;-81
2021/12/15 04:05:46;;;;;;;;;;;11.30;99.90;;;;;;4971479;28;20287;-79
2021/12/15 04:08:11;;;;;;;;;;;11.40;99.90;;;;;;4970889;28;19914;-78
2021/12/15 04:10:37;;;;;;;;;;;11.40;99.90;;;;;;4969846;28;19910;-78
2021/12/15 04:13:03;;;;;;;;;;;11.40;99.90;;;;;;4971354;28;19914;-77
2021/12/15 04:15:31;;;;;;;;;;;11.40;99.90;;;;;;4974596;28;19981;-78
2021/12/15 04:18:00;;;;;;;;;;;11.40;99.90;;;;;;4975169;28;19942;-79
2021/12/15 04:20:27;;;;;;;;;;;11.40;99.90;;;;;;4974517;28;19921;-78
2021/12/15 04:22:53;;;;;;;;;;;11.40;99.90;;;;;;4974291;28;19993;-78
2021/12/15 04:25:23;;;;;;;;;;;11.50;99.90;;;;;;4973474;28;20004;-78
2021/12/15 04:27:57;;;;;;;;;;;11.50;99.90;;;;;;4974497;28;20005;-79
2021/12/15 04:30:24;;;;;;;;;;;11.50;99.90;;;;;;4974248;28;19922;-78
2021/12/15 04:32:50;;;;;;;;;;;11.50;99.90;;;;;;4973657;28;20333;-79
2021/12/15 04:35:16;;;;;;;;;;;11.40;99.90;;;;;;4974282;28;20264;-81
2021/12/15 04:37:42;;;;;;;;;;;11.40;99.90;;;;;;4974437;28;19969;-79
2021/12/15 04:40:09;;;;;;;;;;;11.40;99.90;;;;;;4972860;28;20297;-79
2021/12/15 04:42:37;;;;;;;;;;;11.50;99.90;;;;;;4972820;28;19916;-79
2021/12/15 04:45:03;;;;;;;;;;;11.50;99.90;;;;;;4974102;28;19906;-78
2021/12/15 04:47:29;;;;;;;;;;;11.50;99.90;;;;;;4974511;28;20251;-79
2021/12/15 04:49:55;;;;;;;;;;;11.50;99.90;;;;;;4973841;28;19925;-79
2021/12/15 04:52:22;;;;;;;;;;;11.50;99.90;;;;;;4974007;28;20009;-78
2021/12/15 04:54:48;;;;;;;;;;;11.50;99.90;;;;;;4974163;28;19921;-78
2021/12/15 04:57:14;;;;;;;;;;;11.50;99.90;;;;;;4973958;28;20252;-77
2021/12/15 04:59:40;;;;;;;;;;;11.50;99.90;;;;;;4974801;28;19902;-79
2021/12/15 05:02:07;;;;;;;;;;;11.50;99.90;;;;;;4974444;28;19921;-79
2021/12/15 05:04:32;;;;;;;;;;;11.40;99.90;;;;;;4974454;28;19921;-78
2021/12/15 05:06:58;;;;;;;;;;;11.50;99.90;;;;;;4973977;28;19910;-78
2021/12/15 05:09:23;;;;;;;;;;;11.50;99.90;;;;;;4973054;28;19910;-80
2021/12/15 05:11:50;;;;;;;;;;;11.50;99.90;;;;;;4974696;28;19910;-80
2021/12/15 05:14:17;;;;;;;;;;;11.50;99.90;;;;;;4974723;28;19922;-81
2021/12/15 05:16:42;;;;;;;;;;;11.50;99.90;;;;;;4974986;28;19918;-80
2021/12/15 05:19:08;;;;;;;;;;;11.50;99.90;;;;;;4973726;28;19910;-79
2021/12/15 05:21:34;;;;;;;;;;;11.50;99.90;;;;;;4974649;28;20205;-79
2021/12/15 05:24:08;;;;;;;;;;;11.60;99.90;;;;;;4974208;28;19906;-78
2021/12/15 05:26:34;;;;;;;;;;;11.60;99.90;;;;;;4973516;28;19920;-79
2021/12/15 05:28:59;;;;;;;;;;;11.60;99.90;;;;;;4972906;28;20023;-78
2021/12/15 05:31:25;;;;;;;;;;;11.60;99.90;;;;;;4973620;28;19960;-80
2021/12/15 05:33:51;;;;;;;;;;;11.60;99.90;;;;;;4974062;28;20334;-78
2021/12/15 05:36:16;;;;;;;;;;;11.50;99.90;;;;;;4973729;28;20319;-78
2021/12/15 05:38:42;;;;;;;;;;;11.50;99.90;;;;;;4972888;28;19902;-78
2021/12/15 05:41:07;;;;;;;;;;;11.60;99.90;;;;;;4972109;28;19910;-78
2021/12/15 05:43:34;;;;;;;;;;;11.60;99.90;;;;;;4972334;28;19920;-78
2021/12/15 05:46:00;;;;;;;;;;;11.60;99.90;;;;;;4972354;28;20169;-78
2021/12/15 05:48:25;;;;;;;;;;;11.60;99.90;;;;;;4972289;28;20009;-78
2021/12/15 05:50:51;;;;;;;;;;;11.70;99.90;;;;;;4974102;28;20348;-79
2021/12/15 05:53:18;;;;;;;;;;;11.60;99.90;;;;;;4972140;28;20368;-79
2021/12/15 05:55:43;;;;;;;;;;;11.60;99.90;;;;;;4973177;28;19952;-80
2021/12/15 05:58:09;;;;;;;;;;;11.60;99.90;;;;;;4971688;28;19981;-80
2021/12/15 06:00:37;;;;;;;;;;;11.60;99.90;;;;;;4972696;28;19980;-76
2021/12/15 06:03:03;;;;;;;;;;;11.60;99.90;;;;;;4973301;28;19909;-79
2021/12/15 06:05:29;;;;;;;;;;;11.70;99.90;;;;;;4972785;28;19910;-79
2021/12/15 06:07:54;;;;;;;;;;;11.60;99.90;;;;;;4972627;28;19914;-78
2021/12/15 06:12:56;;;;;;;;;;;11.60;99.90;;;;;;5521388;23;20259;-79
2021/12/15 06:18:25;;;;;;;;;;;11.50;99.90;;;;;;4976334;28;19917;-77
2021/12/15 06:23:54;;;;;;;;;;;11.60;99.90;;;;;;4976314;28;19917;-76
2021/12/15 06:29:23;;;;;;;;;;;11.60;99.90;;;;;;4976616;28;19957;-79
2021/12/15 06:34:51;;;;;;;;;;;11.50;99.90;;;;;;4976217;28;20065;-77
2021/12/15 06:40:38;;;;;;;;;;;11.50;99.90;;;;;;4976036;28;19980;-77
2021/12/15 07:03:28;;;;;;;;;;;11.30;99.90;;;;;;4975504;28;20004;-80
2021/12/15 07:08:56;;;;;;;;;;;11.40;99.90;;;;;;4975863;28;19965;-82
2021/12/15 07:11:22;;;;;;;;;;;11.40;99.90;;;;;;4975746;28;20204;-82
2021/12/15 07:13:48;;;;;;;;;;;11.40;99.90;;;;;;4954472;28;19922;-76
2021/12/15 07:16:14;;;;;;;;;;;11.40;99.90;;;;;;4951215;28;19910;-88
2021/12/15 07:18:49;;;;;;;;;;;11.40;99.90;;;;;;4951036;28;20229;-81
2021/12/15 07:21:19;;;;;;;;;;;11.40;99.90;;;;;;4952064;28;19934;-78
2021/12/15 07:23:45;;;;;;;;;;;11.40;99.90;;;;;;4952081;28;19926;-80
2021/12/15 07:26:11;;;;;;;;;;;11.40;99.90;;;;;;4952009;28;19966;-80
2021/12/15 07:28:37;;;;;;;;;;;11.50;99.90;;;;;;4951785;28;19914;-80
2021/12/15 07:31:03;;;;;;;;;;;11.40;99.90;;;;;;4958299;28;19930;-92
2021/12/15 07:33:28;;;;;;;;;;;11.40;99.90;;;;;;4962024;28;20000;-86
2021/12/15 07:35:54;;;;;;;;;;;11.40;99.90;;;;;;4972254;28;20016;-89
2021/12/15 07:38:22;;;;;;;;;;;11.40;99.90;;;;;;4954668;28;19914;-91
2021/12/15 07:40:48;;;;;;;;;;;11.40;99.90;;;;;;4969145;28;19918;-88
2021/12/15 07:43:23;;;;;;;;;;;11.50;99.90;;;;;;4954774;28;19974;-90
2021/12/15 07:45:52;;;;;;;;;;;11.40;99.90;;;;;;4953020;28;20352;-86
2021/12/15 07:48:19;;;;;;;;;;;11.50;99.90;;;;;;4953116;28;19936;-89
2021/12/15 07:50:46;;;;;;;;;;;11.50;99.90;;;;;;4956164;28;20011;-85
2021/12/15 07:53:12;;;;;;;;;;;11.50;99.90;;;;;;4955752;28;20303;-84
2021/12/15 07:55:38;;;;;;;;;;;11.50;99.90;;;;;;4955419;28;19942;-85
2021/12/15 07:58:05;;;;;;;;;;;11.50;99.90;;;;;;4954232;28;19957;-86
2021/12/15 08:00:31;;;;;;;;;;;11.50;99.90;;;;;;4970243;28;20260;-84
2021/12/15 08:02:57;;;;;;;;;;;11.50;99.90;;;;;;4970568;28;19950;-84
2021/12/15 08:05:23;;;;;;;;;;;11.50;99.90;;;;;;4970836;28;20020;-88
2021/12/15 08:07:48;;;;;;;;;;;11.50;99.90;;;;;;4956714;28;19988;-91
2021/12/15 08:10:14;;;;;;;;;;;11.50;99.90;;;;;;4972300;28;20320;-90
2021/12/15 08:12:41;;;;;;;;;;;11.50;99.90;;;;;;4971065;28;20260;-87
2021/12/15 08:15:07;;;;;;;;;;;11.50;99.90;;;;;;4956026;28;19965;-86
2021/12/15 08:17:36;;;;;;;;;;;11.50;99.90;;;;;;4956813;28;19910;-88
2021/12/15 08:20:03;;;;;;;;;;;11.50;99.90;;;;;;4971569;28;20501;-89
2021/12/15 08:22:28;;;;;;;;;;;11.50;99.90;;;;;;4955484;28;19911;-84
2021/12/15 08:24:55;;;;;;;;;;;11.50;99.90;;;;;;4954804;28;20053;-80
2021/12/15 08:27:20;;;;;;;;;;;11.50;99.90;;;;;;4970794;28;19984;-88
2021/12/15 08:29:46;;;;;;;;;;;11.50;99.90;;;;;;4955291;28;20386;-91
2021/12/15 08:32:12;;;;;;;;;;;11.60;99.90;;;;;;4970432;28;19919;-85
2021/12/15 08:34:37;;;;;;;;;;;11.60;99.90;;;;;;4955555;28;19924;-88
2021/12/15 08:37:03;;;;;;;;;;;11.50;99.90;;;;;;4955455;28;20009;-89
2021/12/15 08:39:28;;;;;;;;;;;11.60;99.90;;;;;;4955487;28;19910;-86
2021/12/15 08:41:55;;;;;;;;;;;11.60;99.90;;;;;;4970442;28;19907;-91
2021/12/15 08:44:22;;;;;;;;;;;11.60;99.90;;;;;;4954563;28;19921;-86
2021/12/15 08:46:48;;;;;;;;;;;11.60;99.90;;;;;;4954768;28;20002;-86
2021/12/15 08:49:18;;;;;;;;;;;11.60;99.90;;;;;;4954949;28;19911;-85
2021/12/15 08:51:44;;;;;;;;;;;11.50;99.90;;;;;;4955655;28;19910;-89
2021/12/15 08:54:14;;;;;;;;;;;11.50;99.90;;;;;;4970180;28;20007;-86
2021/12/15 08:56:40;;;;;;;;;;;11.60;99.90;;;;;;4955975;28;19910;-89
2021/12/15 08:59:05;;;;;;;;;;;11.50;99.90;;;;;;4954860;28;20388;-86
2021/12/15 09:01:31;;;;;;;;;;;11.50;99.90;;;;;;4968735;28;19985;-89
2021/12/15 09:03:57;;;;;;;;;;;11.50;99.90;;;;;;4955255;28;19915;-88
2021/12/15 09:06:23;;;;;;;;;;;11.60;99.90;;;;;;4954501;28;19918;-86
2021/12/15 09:08:49;;;;;;;;;;;11.60;99.90;;;;;;4954929;28;20351;-88
2021/12/15 09:11:16;;;;;;;;;;;11.60;99.90;;;;;;4956183;28;19911;-88
2021/12/15 09:13:47;;;;;;;;;;;11.60;99.90;;;;;;4957936;28;19922;-85
2021/12/15 09:16:13;;;;;;;;;;;11.70;99.90;;;;;;4969552;28;19922;-77
2021/12/15 09:18:39;;;;;;;;;;;11.70;99.90;;;;;;4954616;28;19942;-88
2021/12/15 09:21:06;;;;;;;;;;;11.70;99.90;;;;;;4954584;28;19910;-88
2021/12/15 09:23:32;;;;;;;;;;;11.70;99.90;;;;;;4970276;28;19906;-85
2021/12/15 09:25:58;;;;;;;;;;;11.70;99.90;;;;;;4954549;28;20303;-85
2021/12/15 09:28:25;;;;;;;;;;;11.70;99.90;;;;;;4954304;28;20438;-88
2021/12/15 09:30:52;;;;;;;;;;;11.70;99.90;;;;;;4968891;28;19911;-86
2021/12/15 09:33:18;;;;;;;;;;;11.80;99.90;;;;;;4954793;28;19910;-87
2021/12/15 09:35:45;;;;;;;;;;;11.80;99.90;;;;;;4957291;28;19898;-87
2021/12/15 09:38:11;;;;;;;;;;;11.80;99.90;;;;;;4970258;28;20316;-87
2021/12/15 09:40:39;;;;;;;;;;;11.70;99.90;;;;;;4954185;28;19924;-85
2021/12/15 09:43:06;;;;;;;;;;;11.70;99.90;;;;;;4954368;28;19954;-88
2021/12/15 09:45:49;;;;;;;;;;;11.80;99.90;;;;;;4955674;28;20418;-90
2021/12/15 10:02:13;;;;;;;;;;;11.70;99.90;;;;;;4954582;28;19917;-85
2021/12/15 10:04:55;;;;;;;;;;;11.80;99.90;;;;;;4953415;28;19911;-85
2021/12/15 10:10:40;;;;;;;;;;;11.90;99.90;;;;;;4953568;28;19914;-84
2021/12/15 10:18:24;;;;;;;;;;;11.80;99.90;;;;;;4953936;28;19974;-89
2021/12/15 10:20:50;;;;;;;;;;;11.70;99.90;;;;;;4954079;28;20480;-86
2021/12/15 10:23:23;;;;;;;;;;;11.70;99.90;;;;;;4954230;28;19925;-89
2021/12/15 10:25:53;;;;;;;;;;;11.70;99.90;;;;;;4953974;28;19987;-90
2021/12/15 10:28:20;;;;;;;;;;;11.80;99.90;;;;;;4967486;28;19974;-86
2021/12/15 10:30:48;;;;;;;;;;;11.80;99.90;;;;;;4953430;28;19910;-87
2021/12/15 10:33:15;;;;;;;;;;;11.80;99.90;;;;;;4969493;28;20398;-88
2021/12/15 10:35:53;;;;;;;;;;;11.80;99.90;;;;;;4953315;28;19910;-85
2021/12/15 10:38:52;;;;;;;;;;;11.80;99.90;;;;;;4969545;28;20351;-88
2021/12/15 10:41:35;;;;;;;;;;;11.80;99.90;;;;;;4942444;29;19910;-94
2021/12/15 10:44:03;;;;;;;;;;;11.80;99.90;;;;;;4968948;28;19911;-86
2021/12/15 10:46:35;;;;;;;;;;;11.80;99.90;;;;;;4951561;28;19918;-80
2021/12/15 10:49:03;;;;;;;;;;;11.80;99.90;;;;;;4952213;28;20286;-89
2021/12/15 10:51:32;;;;;;;;;;;11.80;99.90;;;;;;4952348;28;19948;-87
2021/12/15 10:54:00;;;;;;;;;;;11.80;99.90;;;;;;4952775;28;20248;-87
2021/12/15 10:56:28;;;;;;;;;;;11.80;99.90;;;;;;4952073;28;19918;-85
2021/12/15 10:58:55;;;;;;;;;;;11.80;99.90;;;;;;4952290;28;19989;-84
2021/12/15 11:01:35;;;;;;;;;;;11.80;99.90;;;;;;4952123;28;19911;-85
2021/12/15 11:04:02;;;;;;;;;;;11.90;99.90;;;;;;4966787;28;19977;-85
2021/12/15 11:06:32;;;;;;;;;;;12.00;99.90;;;;;;4966728;28;19914;-85
2021/12/15 11:09:11;;;;;;;;;;;12.00;99.90;;;;;;4967435;28;19906;-87
2021/12/15 11:11:37;;;;;;;;;;;12.00;99.90;;;;;;4947342;29;19961;-81
2021/12/15 11:14:23;;;;;;;;;;;11.90;99.90;;;;;;4931283;29;19997;-83
2021/12/15 11:17:06;;;;;;;;;;;11.90;99.90;;;;;;4935681;28;19934;-87
2021/12/15 11:20:07;;;;;;;;;;;11.90;99.90;;;;;;4951697;28;19990;-82
2021/12/15 11:22:35;;;;;;;;;;;11.90;99.90;;;;;;4929649;29;19915;-83
2021/12/15 11:25:02;;;;;;;;;;;11.90;99.90;;;;;;4932052;28;20278;-82
2021/12/15 11:27:28;;;;;;;;;;;11.80;99.90;;;;;;4932521;28;19911;-84
2021/12/15 11:29:54;;;;;;;;;;;11.90;99.90;;;;;;4934318;29;19930;-83
2021/12/15 11:32:38;;;;;;;;;;;11.90;99.90;;;;;;4932540;28;19925;-82
2021/12/15 11:35:24;;;;;;;;;;;11.90;99.90;;;;;;4948211;28;19950;-81
2021/12/15 11:37:56;;;;;;;;;;;12.10;99.90;;;;;;4946989;28;19977;-72
2021/12/15 11:40:44;;;;;;;;;;;12.00;99.90;;;;;;4932126;28;20026;-83
2021/12/15 11:43:25;;;;;;;;;;;12.00;99.90;;;;;;4932061;28;20340;-78
2021/12/15 11:45:50;;;;;;;;;;;11.90;99.90;;;;;;4931866;28;20029;-79
2021/12/15 11:48:18;;;;;;;;;;;12.00;99.90;;;;;;4932258;29;19942;-77
2021/12/15 11:50:44;;;;;;;;;;;12.00;99.90;;;;;;4947279;29;19949;-78
2021/12/15 11:53:21;;;;;;;;;;;12.00;99.90;;;;;;4947026;28;19925;-78
2021/12/15 11:55:46;;;;;;;;;;;12.00;99.90;;;;;;4931978;29;20377;-78
2021/12/15 11:58:13;;;;;;;;;;;12.00;99.90;;;;;;4932014;29;19914;-84
2021/12/15 12:00:39;;;;;;;;;;;12.00;99.90;;;;;;4946988;28;19966;-80
2021/12/15 12:03:04;;;;;;;;;;;12.10;99.90;;;;;;4931030;28;19907;-79
2021/12/15 12:05:36;;;;;;;;;;;12.10;99.90;;;;;;4947379;29;19913;-82
2021/12/15 12:08:07;;;;;;;;;;;12.00;99.90;;;;;;4932178;28;20341;-80
2021/12/15 12:10:42;;;;;;;;;;;12.00;99.90;;;;;;4932239;28;20346;-81
2021/12/15 12:13:12;;;;;;;;;;;12.10;99.90;;;;;;4931959;28;19927;-76
2021/12/15 12:15:42;;;;;;;;;;;12.10;99.90;;;;;;4931943;28;19910;-71
2021/12/15 12:18:10;;;;;;;;;;;12.00;99.90;;;;;;4932196;28;20170;-84
2021/12/15 12:20:43;;;;;;;;;;;12.10;99.90;;;;;;4932927;29;19909;-83
2021/12/15 12:23:10;;;;;;;;;;;12.30;99.90;;;;;;4931810;29;20127;-75
2021/12/15 12:25:38;;;;;;;;;;;12.30;99.90;;;;;;4931425;28;19910;-73
2021/12/15 12:28:09;;;;;;;;;;;12.30;99.90;;;;;;4931976;28;20002;-80
2021/12/15 12:30:34;;;;;;;;;;;12.20;99.90;;;;;;4932497;28;20436;-82
2021/12/15 12:33:01;;;;;;;;;;;12.20;99.90;;;;;;4932166;29;20005;-81
2021/12/15 12:35:28;;;;;;;;;;;12.20;99.90;;;;;;4934603;28;19910;-81
2021/12/15 12:38:04;;;;;;;;;;;12.20;99.90;;;;;;4950493;28;19927;-81
2021/12/15 12:40:31;;;;;;;;;;;12.20;99.80;;;;;;4950242;28;19974;-79
2021/12/15 12:42:57;;;;;;;;;;;12.30;99.90;;;;;;4935653;28;19922;-79
2021/12/15 12:45:33;;;;;;;;;;;12.30;99.80;;;;;;4935690;28;19910;-80
2021/12/15 12:59:25;;;;;;;;;;;12.40;99.50;;;;;;4954304;28;19921;-79
2021/12/15 13:01:51;;;;;;;;;;;12.40;99.50;;;;;;4953142;28;20025;-81
2021/12/15 13:04:17;;;;;;;;;;;12.40;99.40;;;;;;4954292;28;20377;-79
2021/12/15 13:06:43;;;;;;;;;;;12.30;99.30;;;;;;4954518;28;19934;-79
2021/12/15 13:09:10;;;;;;;;;;;12.40;99.40;;;;;;4954253;28;19918;-79
2021/12/15 13:11:38;;;;;;;;;;;12.30;99.30;;;;;;4969301;28;19938;-80
2021/12/15 13:14:22;;;;;;;;;;;12.30;99.30;;;;;;4953777;28;19940;-78
2021/12/15 13:16:53;;;;;;;;;;;12.30;99.30;;;;;;4954390;28;20429;-80
2021/12/15 13:19:25;;;;;;;;;;;12.30;99.30;;;;;;4968858;28;20139;-84
2021/12/15 13:21:56;;;;;;;;;;;12.40;99.30;;;;;;4954065;28;19966;-84
2021/12/15 13:28:42;;;;;;;;;;;12.30;99.20;;;;;;4953766;28;19911;-84
2021/12/15 13:30:22;;;;;;;;;;;12.40;99.30;;;;;;4954383;28;19916;-81
2021/12/15 13:32:48;;;;;;;;;;;12.40;99.20;;;;;;4953946;28;19910;-84
2021/12/15 13:35:23;;;;;;;;;;;12.30;99.20;;;;;;4953846;28;19922;-81
2021/12/15 13:37:55;;;;;;;;;;;12.40;99.40;;;;;;4968674;28;20321;-75
2021/12/15 13:40:39;;;;;;;;;;;12.40;99.40;;;;;;4953752;28;19925;-82
2021/12/15 13:43:04;;;;;;;;;;;12.50;99.40;;;;;;4953501;28;19973;-80
2021/12/15 13:45:31;;;;;;;;;;;12.40;99.20;;;;;;4953091;28;19918;-84
2021/12/15 13:47:57;;;;;;;;;;;12.30;99.30;;;;;;4953970;28;19945;-83
2021/12/15 13:50:29;;;;;;;;;;;12.30;99.30;;;;;;4953636;28;20011;-80
2021/12/15 13:52:59;;;;;;;;;;;12.30;99.30;;;;;;4968569;28;19915;-82
2021/12/15 13:55:26;;;;;;;;;;;12.30;99.40;;;;;;4968682;28;19961;-82
2021/12/15 13:57:54;;;;;;;;;;;12.20;99.30;;;;;;4953291;28;19946;-83
2021/12/15 14:00:29;;;;;;;;;;;12.20;99.40;;;;;;4953671;28;20012;-81
2021/12/15 14:03:00;;;;;;;;;;;12.20;99.50;;;;;;4953868;28;20217;-81
2021/12/15 14:05:28;;;;;;;;;;;12.20;99.50;;;;;;4953296;28;20008;-81
2021/12/15 14:07:59;;;;;;;;;;;12.10;99.50;;;;;;4967806;28;19918;-81
2021/12/15 14:10:25;;;;;;;;;;;12.10;99.40;;;;;;4967911;28;20041;-79
2021/12/15 14:12:50;;;;;;;;;;;12.20;99.40;;;;;;4952479;28;19918;-80
2021/12/15 14:15:25;;;;;;;;;;;12.10;99.50;;;;;;4953196;28;19911;-81
2021/12/15 14:17:58;;;;;;;;;;;12.10;99.60;;;;;;4953488;28;19953;-81
2021/12/15 14:20:24;;;;;;;;;;;12.10;99.40;;;;;;4952512;28;19916;-80
2021/12/15 14:22:57;;;;;;;;;;;12.10;99.60;;;;;;4952567;28;19914;-83
2021/12/15 14:25:23;;;;;;;;;;;12.10;99.50;;;;;;4952693;28;19997;-77
2021/12/15 14:27:48;;;;;;;;;;;12.10;99.50;;;;;;4952911;28;20303;-74
2021/12/15 14:30:14;;;;;;;;;;;12.20;99.60;;;;;;4952682;28;19965;-74
2021/12/15 14:32:41;;;;;;;;;;;12.20;99.50;;;;;;4953004;28;20327;-80
2021/12/15 14:35:27;;;;;;;;;;;12.10;99.40;;;;;;4953424;28;19911;-93
2021/12/15 14:37:52;;;;;;;;;;;12.20;99.40;;;;;;4952266;28;19958;-77
2021/12/15 14:40:19;;;;;;;;;;;12.20;99.40;;;;;;4952452;28;19950;-82
2021/12/15 14:42:45;;;;;;;;;;;12.20;99.50;;;;;;4967844;28;19954;-84
2021/12/15 14:45:11;;;;;;;;;;;12.20;99.40;;;;;;4967741;28;19973;-82
2021/12/15 14:47:38;;;;;;;;;;;12.20;99.40;;;;;;4952733;28;19902;-88
2021/12/15 14:50:06;;;;;;;;;;;12.20;99.30;;;;;;4952313;28;19911;-83
2021/12/15 14:52:36;;;;;;;;;;;12.10;99.30;;;;;;4952078;28;19922;-81
2021/12/15 14:55:15;;;;;;;;;;;12.10;99.30;;;;;;4951890;28;19911;-76
2021/12/15 14:57:40;;;;;;;;;;;12.10;99.30;;;;;;4951513;28;19958;-85
2021/12/15 15:00:12;;;;;;;;;;;12.10;99.30;;;;;;4953479;28;19945;-83
2021/12/15 15:02:41;;;;;;;;;;;12.10;99.30;;;;;;4953956;28;19917;-88
2021/12/15 15:05:09;;;;;;;;;;;12.00;99.40;;;;;;4967172;28;19918;-81
2021/12/15 15:07:36;;;;;;;;;;;12.10;99.40;;;;;;4966694;28;19910;-79
2021/12/15 15:10:05;;;;;;;;;;;12.10;99.40;;;;;;4966788;28;19922;-78
2021/12/15 15:12:33;;;;;;;;;;;12.10;99.30;;;;;;4951847;28;19956;-79
2021/12/15 15:15:00;;;;;;;;;;;12.10;99.40;;;;;;4952038;28;19919;-79
2021/12/15 15:17:31;;;;;;;;;;;12.10;99.30;;;;;;4966890;28;19910;-80
2021/12/15 15:20:09;;;;;;;;;;;12.10;99.30;;;;;;4951832;28;19921;-80
2021/12/15 15:22:35;;;;;;;;;;;12.10;99.30;;;;;;4953366;28;19910;-82
2021/12/15 15:25:01;;;;;;;;;;;12.10;99.40;;;;;;4950630;28;19965;-82
2021/12/15 15:27:27;;;;;;;;;;;12.10;99.30;;;;;;4950654;28;19910;-81
2021/12/15 15:29:54;;;;;;;;;;;12.10;99.30;;;;;;4952201;28;19976;-79
2021/12/15 15:32:19;;;;;;;;;;;12.10;99.20;;;;;;4951287;28;20198;-83
2021/12/15 15:34:46;;;;;;;;;;;12.10;99.20;;;;;;4951683;28;19910;-81
2021/12/15 15:37:31;;;;;;;;;;;12.10;99.20;;;;;;4951725;28;19914;-79
2021/12/15 15:40:02;;;;;;;;;;;12.10;99.20;;;;;;4952063;28;19914;-80
2021/12/15 15:42:28;;;;;;;;;;;12.10;99.30;;;;;;4951448;28;19915;-84
2021/12/15 15:44:53;;;;;;;;;;;12.10;99.30;;;;;;4967117;28;19906;-86
2021/12/15 15:47:20;;;;;;;;;;;12.10;99.20;;;;;;4966874;28;19911;-87
2021/12/15 15:49:47;;;;;;;;;;;12.10;99.20;;;;;;4951875;28;19910;-84
2021/12/15 15:52:13;;;;;;;;;;;12.10;99.20;;;;;;4951866;28;19934;-84
2021/12/15 15:54:39;;;;;;;;;;;12.10;99.20;;;;;;4951595;28;19917;-82
2021/12/15 15:57:05;;;;;;;;;;;12.10;99.20;;;;;;4966167;28;19907;-80
2021/12/15 15:59:31;;;;;;;;;;;12.10;99.20;;;;;;4951802;28;20016;-81
2021/12/15 16:01:59;;;;;;;;;;;12.10;99.20;;;;;;4951796;28;19974;-93
2021/12/15 16:04:24;;;;;;;;;;;12.10;99.20;;;;;;4952308;28;20272;-84
2021/12/15 16:06:51;;;;;;;;;;;12.00;99.30;;;;;;4952093;28;19915;-83
2021/12/15 16:09:21;;;;;;;;;;;12.10;99.30;;;;;;4954581;28;20049;-86